Time;durP1;ratioP1;P1;durP2;ratioP2;P2;SDS_P1;SDS_P2;PMS_P1;PMS_P2;Temp;Humidity;BMP_temperature;BMP_pressure;BME280_temperature;BME280_humidity;BME280_pressure;Samples;Min_cycle;Max_cycle;Signal;HPM_P1;HPM_P2
2022/03/06 00:00:14;;;;;;;17.6;9.65;;;;;;;-2.61;43.45898;95203.55;;;;
2022/03/06 00:01:15;;;;;;;17.6;9.65;;;;;;;-2.61;43.45898;95203.55;;;;
2022/03/06 00:02:16;;;;;;;17.6;9.65;;;;;;;-2.61;43.45898;95203.55;;;;
2022/03/06 00:03:16;;;;;;;17.6;9.65;;;;;;;-2.61;43.45898;95203.55;;;;
2022/03/06 00:04:17;;;;;;;17.6;9.65;;;;;;;-2.61;43.45898;95203.55;;;;
2022/03/06 00:05:18;;;;;;;17.6;9.65;;;;;;;-2.61;43.45898;95203.55;;;;
2022/03/06 00:06:19;;;;;;;17.6;9.65;;;;;;;-2.61;43.45898;95203.55;;;;
2022/03/06 00:07:20;;;;;;;17.6;9.65;;;;;;;-2.61;43.45898;95203.55;;;;
2022/03/06 00:08:20;;;;;;;17.6;9.65;;;;;;;-2.61;43.45898;95203.55;;;;
2022/03/06 00:09:21;;;;;;;17.6;9.65;;;;;;;-2.61;43.45898;95203.55;;;;
2022/03/06 00:10:21;;;;;;;18.7;8.999998;;;;;;;-2.72;43.82422;95204.24;;;;
2022/03/06 00:11:22;;;;;;;18.7;8.999998;;;;;;;-2.72;43.82422;95204.24;;;;
2022/03/06 00:12:23;;;;;;;18.7;8.999998;;;;;;;-2.72;43.82422;95204.24;;;;
2022/03/06 00:13:24;;;;;;;18.7;8.999998;;;;;;;-2.72;43.82422;95204.24;;;;
2022/03/06 00:14:24;;;;;;;18.7;8.999998;;;;;;;-2.72;43.82422;95204.24;;;;
2022/03/06 00:15:26;;;;;;;18.7;8.999998;;;;;;;-2.72;43.82422;95204.24;;;;
2022/03/06 00:16:26;;;;;;;18.7;8.999998;;;;;;;-2.72;43.82422;95204.24;;;;
2022/03/06 00:17:27;;;;;;;18.7;8.999998;;;;;;;-2.72;43.82422;95204.24;;;;
2022/03/06 00:18:27;;;;;;;18.7;8.999998;;;;;;;-2.72;43.82422;95204.24;;;;
2022/03/06 00:19:28;;;;;;;18.7;8.999998;;;;;;;-2.72;43.82422;95204.24;;;;
2022/03/06 00:20:28;;;;;;;18.7;8.999998;;;;;;;-2.72;43.82422;95204.24;;;;
2022/03/06 00:21:30;;;;;;;17.75;9.549999;;;;;;;-2.73;44.2627;95202.15;;;;
2022/03/06 00:22:30;;;;;;;17.75;9.549999;;;;;;;-2.73;44.2627;95202.15;;;;
2022/03/06 00:23:31;;;;;;;17.75;9.549999;;;;;;;-2.73;44.2627;95202.15;;;;
2022/03/06 00:24:33;;;;;;;17.75;9.549999;;;;;;;-2.73;44.2627;95202.15;;;;
2022/03/06 00:25:34;;;;;;;17.75;9.549999;;;;;;;-2.73;44.2627;95202.15;;;;
2022/03/06 00:26:35;;;;;;;17.75;9.549999;;;;;;;-2.73;44.2627;95202.15;;;;
2022/03/06 00:27:36;;;;;;;17.75;9.549999;;;;;;;-2.73;44.2627;95202.15;;;;
2022/03/06 00:28:36;;;;;;;17.75;9.549999;;;;;;;-2.73;44.2627;95202.15;;;;
2022/03/06 00:29:37;;;;;;;17.75;9.549999;;;;;;;-2.73;44.2627;95202.15;;;;
2022/03/06 00:30:37;;;;;;;17.75;9.549999;;;;;;;-2.73;44.2627;95202.15;;;;
2022/03/06 00:31:39;;;;;;;20.15;9.700001;;;;;;;-2.68;44.92676;95210.88;;;;
2022/03/06 00:32:39;;;;;;;20.15;9.700001;;;;;;;-2.68;44.92676;95210.88;;;;
2022/03/06 00:33:40;;;;;;;20.15;9.700001;;;;;;;-2.68;44.92676;95210.88;;;;
2022/03/06 00:34:42;;;;;;;20.15;9.700001;;;;;;;-2.68;44.92676;95210.88;;;;
2022/03/06 00:35:42;;;;;;;20.15;9.700001;;;;;;;-2.68;44.92676;95210.88;;;;
2022/03/06 00:36:43;;;;;;;20.15;9.700001;;;;;;;-2.68;44.92676;95210.88;;;;
2022/03/06 00:37:43;;;;;;;20.15;9.700001;;;;;;;-2.68;44.92676;95210.88;;;;
2022/03/06 00:38:44;;;;;;;20.15;9.700001;;;;;;;-2.68;44.92676;95210.88;;;;
2022/03/06 00:39:45;;;;;;;20.15;9.700001;;;;;;;-2.68;44.92676;95210.88;;;;
2022/03/06 00:40:45;;;;;;;20.15;9.700001;;;;;;;-2.68;44.92676;95210.88;;;;
2022/03/06 00:41:46;;;;;;;20.15;9.700001;;;;;;;-2.68;44.92676;95210.88;;;;
2022/03/06 00:42:47;;;;;;;25.15;10.45;;;;;;;-2.68;45.33496;95210.46;;;;
2022/03/06 00:43:47;;;;;;;25.15;10.45;;;;;;;-2.68;45.33496;95210.46;;;;
2022/03/06 00:44:48;;;;;;;25.15;10.45;;;;;;;-2.68;45.33496;95210.46;;;;
2022/03/06 00:45:48;;;;;;;25.15;10.45;;;;;;;-2.68;45.33496;95210.46;;;;
2022/03/06 00:46:49;;;;;;;25.15;10.45;;;;;;;-2.68;45.33496;95210.46;;;;
2022/03/06 00:47:49;;;;;;;25.15;10.45;;;;;;;-2.68;45.33496;95210.46;;;;
2022/03/06 00:48:50;;;;;;;25.15;10.45;;;;;;;-2.68;45.33496;95210.46;;;;
2022/03/06 00:49:51;;;;;;;25.15;10.45;;;;;;;-2.68;45.33496;95210.46;;;;
2022/03/06 00:50:51;;;;;;;25.15;10.45;;;;;;;-2.68;45.33496;95210.46;;;;
2022/03/06 00:51:52;;;;;;;25.15;10.45;;;;;;;-2.68;45.33496;95210.46;;;;
2022/03/06 00:52:53;;;;;;;25.15;10.45;;;;;;;-2.68;45.33496;95210.46;;;;
2022/03/06 00:53:53;;;;;;;20.45;9.7;;;;;;;-2.78;45.87891;95210.14;;;;
2022/03/06 00:54:54;;;;;;;20.45;9.7;;;;;;;-2.78;45.87891;95210.14;;;;
2022/03/06 00:55:54;;;;;;;20.45;9.7;;;;;;;-2.78;45.87891;95210.14;;;;
2022/03/06 00:56:55;;;;;;;20.45;9.7;;;;;;;-2.78;45.87891;95210.14;;;;
2022/03/06 00:57:56;;;;;;;20.45;9.7;;;;;;;-2.78;45.87891;95210.14;;;;
2022/03/06 00:58:56;;;;;;;20.45;9.7;;;;;;;-2.78;45.87891;95210.14;;;;
2022/03/06 00:59:57;;;;;;;20.45;9.7;;;;;;;-2.78;45.87891;95210.14;;;;
2022/03/06 01:00:57;;;;;;;20.45;9.7;;;;;;;-2.78;45.87891;95210.14;;;;
2022/03/06 01:01:57;;;;;;;20.45;9.7;;;;;;;-2.78;45.87891;95210.14;;;;
2022/03/06 01:02:58;;;;;;;20.45;9.7;;;;;;;-2.78;45.87891;95210.14;;;;
2022/03/06 01:03:59;;;;;;;20.45;9.75;;;;;;;-2.88;46.64258;95201.93;;;;
2022/03/06 01:04:59;;;;;;;20.45;9.75;;;;;;;-2.88;46.64258;95201.93;;;;
2022/03/06 01:06:00;;;;;;;20.45;9.75;;;;;;;-2.88;46.64258;95201.93;;;;
2022/03/06 01:07:00;;;;;;;20.45;9.75;;;;;;;-2.88;46.64258;95201.93;;;;
2022/03/06 01:08:01;;;;;;;20.45;9.75;;;;;;;-2.88;46.64258;95201.93;;;;
2022/03/06 01:09:03;;;;;;;20.45;9.75;;;;;;;-2.88;46.64258;95201.93;;;;
2022/03/06 01:10:05;;;;;;;20.45;9.75;;;;;;;-2.88;46.64258;95201.93;;;;
2022/03/06 01:11:07;;;;;;;20.45;9.75;;;;;;;-2.88;46.64258;95201.93;;;;
2022/03/06 01:12:07;;;;;;;20.45;9.75;;;;;;;-2.88;46.64258;95201.93;;;;
2022/03/06 01:13:08;;;;;;;20.45;9.75;;;;;;;-2.88;46.64258;95201.93;;;;
2022/03/06 01:14:10;;;;;;;20.45;9.75;;;;;;;-2.88;46.64258;95201.93;;;;
2022/03/06 01:15:11;;;;;;;20.95;10.05;;;;;;;-2.94;46.26953;95192.47;;;;
2022/03/06 01:16:11;;;;;;;20.95;10.05;;;;;;;-2.94;46.26953;95192.47;;;;
2022/03/06 01:17:12;;;;;;;20.95;10.05;;;;;;;-2.94;46.26953;95192.47;;;;
2022/03/06 01:18:12;;;;;;;20.95;10.05;;;;;;;-2.94;46.26953;95192.47;;;;
2022/03/06 01:19:13;;;;;;;20.95;10.05;;;;;;;-2.94;46.26953;95192.47;;;;
2022/03/06 01:20:14;;;;;;;20.95;10.05;;;;;;;-2.94;46.26953;95192.47;;;;
2022/03/06 01:21:15;;;;;;;20.95;10.05;;;;;;;-2.94;46.26953;95192.47;;;;
2022/03/06 01:22:15;;;;;;;20.95;10.05;;;;;;;-2.94;46.26953;95192.47;;;;
2022/03/06 01:23:16;;;;;;;20.95;10.05;;;;;;;-2.94;46.26953;95192.47;;;;
2022/03/06 01:24:16;;;;;;;20.95;10.05;;;;;;;-2.94;46.26953;95192.47;;;;
2022/03/06 01:25:17;;;;;;;19;9.049999;;;;;;;-3.09;46.3252;95205.94;;;;
2022/03/06 01:26:17;;;;;;;19;9.049999;;;;;;;-3.09;46.3252;95205.94;;;;
2022/03/06 01:27:18;;;;;;;19;9.049999;;;;;;;-3.09;46.3252;95205.94;;;;
2022/03/06 01:28:19;;;;;;;19;9.049999;;;;;;;-3.09;46.3252;95205.94;;;;
2022/03/06 01:29:22;;;;;;;19;9.049999;;;;;;;-3.09;46.3252;95205.94;;;;
2022/03/06 01:30:23;;;;;;;19;9.049999;;;;;;;-3.09;46.3252;95205.94;;;;
2022/03/06 01:31:25;;;;;;;19;9.049999;;;;;;;-3.09;46.3252;95205.94;;;;
2022/03/06 01:32:25;;;;;;;19;9.049999;;;;;;;-3.09;46.3252;95205.94;;;;
2022/03/06 01:33:26;;;;;;;19;9.049999;;;;;;;-3.09;46.3252;95205.94;;;;
2022/03/06 01:34:26;;;;;;;19;9.049999;;;;;;;-3.09;46.3252;95205.94;;;;
2022/03/06 01:35:28;;;;;;;19;9.049999;;;;;;;-3.09;46.3252;95205.94;;;;
2022/03/06 01:36:28;;;;;;;20.1;10.4;;;;;;;-3.22;46.62598;95201.87;;;;
2022/03/06 01:37:29;;;;;;;20.1;10.4;;;;;;;-3.22;46.62598;95201.87;;;;
2022/03/06 01:38:29;;;;;;;20.1;10.4;;;;;;;-3.22;46.62598;95201.87;;;;
2022/03/06 01:39:30;;;;;;;20.1;10.4;;;;;;;-3.22;46.62598;95201.87;;;;
2022/03/06 01:40:31;;;;;;;20.1;10.4;;;;;;;-3.22;46.62598;95201.87;;;;
2022/03/06 01:41:31;;;;;;;20.1;10.4;;;;;;;-3.22;46.62598;95201.87;;;;
2022/03/06 01:42:33;;;;;;;20.1;10.4;;;;;;;-3.22;46.62598;95201.87;;;;
2022/03/06 01:43:34;;;;;;;20.1;10.4;;;;;;;-3.22;46.62598;95201.87;;;;
2022/03/06 01:44:34;;;;;;;20.1;10.4;;;;;;;-3.22;46.62598;95201.87;;;;
2022/03/06 01:45:36;;;;;;;20.1;10.4;;;;;;;-3.22;46.62598;95201.87;;;;
2022/03/06 01:46:37;;;;;;;22;11.3;;;;;;;-3.31;46.68848;95202.89;;;;
2022/03/06 01:47:39;;;;;;;22;11.3;;;;;;;-3.31;46.68848;95202.89;;;;
2022/03/06 01:48:42;;;;;;;22;11.3;;;;;;;-3.31;46.68848;95202.89;;;;
2022/03/06 01:49:42;;;;;;;22;11.3;;;;;;;-3.31;46.68848;95202.89;;;;
2022/03/06 01:50:44;;;;;;;22;11.3;;;;;;;-3.31;46.68848;95202.89;;;;
2022/03/06 01:51:45;;;;;;;22;11.3;;;;;;;-3.31;46.68848;95202.89;;;;
2022/03/06 01:52:46;;;;;;;22;11.3;;;;;;;-3.31;46.68848;95202.89;;;;
2022/03/06 01:53:49;;;;;;;22;11.3;;;;;;;-3.31;46.68848;95202.89;;;;
2022/03/06 01:54:50;;;;;;;22;11.3;;;;;;;-3.31;46.68848;95202.89;;;;
2022/03/06 01:55:50;;;;;;;22;11.3;;;;;;;-3.31;46.68848;95202.89;;;;
2022/03/06 01:56:51;;;;;;;22;11.3;;;;;;;-3.31;46.68848;95202.89;;;;
2022/03/06 01:57:51;;;;;;;24.85;11.85;;;;;;;-3.32;47.26172;95200.73;;;;
2022/03/06 01:58:54;;;;;;;24.85;11.85;;;;;;;-3.32;47.26172;95200.73;;;;
2022/03/06 01:59:57;;;;;;;24.85;11.85;;;;;;;-3.32;47.26172;95200.73;;;;
2022/03/06 02:00:59;;;;;;;24.85;11.85;;;;;;;-3.32;47.26172;95200.73;;;;
2022/03/06 02:01:59;;;;;;;24.85;11.85;;;;;;;-3.32;47.26172;95200.73;;;;
2022/03/06 02:03:00;;;;;;;24.85;11.85;;;;;;;-3.32;47.26172;95200.73;;;;
2022/03/06 02:04:01;;;;;;;24.85;11.85;;;;;;;-3.32;47.26172;95200.73;;;;
2022/03/06 02:05:02;;;;;;;24.85;11.85;;;;;;;-3.32;47.26172;95200.73;;;;
2022/03/06 02:06:05;;;;;;;24.85;11.85;;;;;;;-3.32;47.26172;95200.73;;;;
2022/03/06 02:07:06;;;;;;;24.85;11.85;;;;;;;-3.32;47.26172;95200.73;;;;
2022/03/06 02:08:06;;;;;;;23.95;11.9;;;;;;;-3.28;47.65234;95210.42;;;;
2022/03/06 02:09:07;;;;;;;23.95;11.9;;;;;;;-3.28;47.65234;95210.42;;;;
2022/03/06 02:10:08;;;;;;;23.95;11.9;;;;;;;-3.28;47.65234;95210.42;;;;
2022/03/06 02:11:10;;;;;;;23.95;11.9;;;;;;;-3.28;47.65234;95210.42;;;;
2022/03/06 02:12:27;;;;;;;23.95;11.9;;;;;;;-3.28;47.65234;95210.42;;;;
2022/03/06 02:13:28;;;;;;;23.95;11.9;;;;;;;-3.28;47.65234;95210.42;;;;
2022/03/06 02:14:28;;;;;;;23.95;11.9;;;;;;;-3.28;47.65234;95210.42;;;;
2022/03/06 02:15:29;;;;;;;23.95;11.9;;;;;;;-3.28;47.65234;95210.42;;;;
2022/03/06 02:16:29;;;;;;;23.95;11.9;;;;;;;-3.28;47.65234;95210.42;;;;
2022/03/06 02:17:31;;;;;;;23.95;11.9;;;;;;;-3.28;47.65234;95210.42;;;;
2022/03/06 02:18:32;;;;;;;22.15;11.05;;;;;;;-3.29;47.69336;95197.77;;;;
2022/03/06 02:19:32;;;;;;;22.15;11.05;;;;;;;-3.29;47.69336;95197.77;;;;
2022/03/06 02:20:50;;;;;;;22.15;11.05;;;;;;;-3.29;47.69336;95197.77;;;;
2022/03/06 02:21:50;;;;;;;22.15;11.05;;;;;;;-3.29;47.69336;95197.77;;;;
2022/03/06 02:22:51;;;;;;;22.15;11.05;;;;;;;-3.29;47.69336;95197.77;;;;
2022/03/06 02:23:54;;;;;;;22.15;11.05;;;;;;;-3.29;47.69336;95197.77;;;;
2022/03/06 02:24:54;;;;;;;22.15;11.05;;;;;;;-3.29;47.69336;95197.77;;;;
2022/03/06 02:25:57;;;;;;;22.15;11.05;;;;;;;-3.29;47.69336;95197.77;;;;
2022/03/06 02:26:59;;;;;;;22.15;11.05;;;;;;;-3.29;47.69336;95197.77;;;;
2022/03/06 02:27:59;;;;;;;22.15;11.05;;;;;;;-3.29;47.69336;95197.77;;;;
2022/03/06 02:29:02;;;;;;;20.85;11.05;;;;;;;-3.42;47.47949;95198.69;;;;
2022/03/06 02:30:03;;;;;;;20.85;11.05;;;;;;;-3.42;47.47949;95198.69;;;;
2022/03/06 02:31:05;;;;;;;20.85;11.05;;;;;;;-3.42;47.47949;95198.69;;;;
2022/03/06 02:32:06;;;;;;;20.85;11.05;;;;;;;-3.42;47.47949;95198.69;;;;
2022/03/06 02:33:09;;;;;;;20.85;11.05;;;;;;;-3.42;47.47949;95198.69;;;;
2022/03/06 02:34:12;;;;;;;20.85;11.05;;;;;;;-3.42;47.47949;95198.69;;;;
2022/03/06 02:35:13;;;;;;;20.85;11.05;;;;;;;-3.42;47.47949;95198.69;;;;
2022/03/06 02:36:14;;;;;;;20.85;11.05;;;;;;;-3.42;47.47949;95198.69;;;;
2022/03/06 02:37:15;;;;;;;20.85;11.05;;;;;;;-3.42;47.47949;95198.69;;;;
2022/03/06 02:38:18;;;;;;;20.85;11.05;;;;;;;-3.42;47.47949;95198.69;;;;
2022/03/06 02:39:19;;;;;;;20.85;11.05;;;;;;;-3.42;47.47949;95198.69;;;;
2022/03/06 02:40:24;;;;;;;23;11.4;;;;;;;-3.54;47.56055;95199.89;;;;
2022/03/06 02:41:24;;;;;;;23;11.4;;;;;;;-3.54;47.56055;95199.89;;;;
2022/03/06 02:42:25;;;;;;;23;11.4;;;;;;;-3.54;47.56055;95199.89;;;;
2022/03/06 02:43:27;;;;;;;23;11.4;;;;;;;-3.54;47.56055;95199.89;;;;
2022/03/06 02:44:28;;;;;;;23;11.4;;;;;;;-3.54;47.56055;95199.89;;;;
2022/03/06 02:45:29;;;;;;;23;11.4;;;;;;;-3.54;47.56055;95199.89;;;;
2022/03/06 02:46:30;;;;;;;23;11.4;;;;;;;-3.54;47.56055;95199.89;;;;
2022/03/06 02:47:30;;;;;;;23;11.4;;;;;;;-3.54;47.56055;95199.89;;;;
2022/03/06 02:48:31;;;;;;;23;11.4;;;;;;;-3.54;47.56055;95199.89;;;;
2022/03/06 02:49:32;;;;;;;23;11.4;;;;;;;-3.54;47.56055;95199.89;;;;
2022/03/06 02:50:32;;;;;;;22.7;11.3;;;;;;;-3.63;47.55078;95205.66;;;;
2022/03/06 02:51:36;;;;;;;22.7;11.3;;;;;;;-3.63;47.55078;95205.66;;;;
2022/03/06 02:52:36;;;;;;;22.7;11.3;;;;;;;-3.63;47.55078;95205.66;;;;
2022/03/06 02:53:37;;;;;;;22.7;11.3;;;;;;;-3.63;47.55078;95205.66;;;;
2022/03/06 02:54:37;;;;;;;22.7;11.3;;;;;;;-3.63;47.55078;95205.66;;;;
2022/03/06 02:55:38;;;;;;;22.7;11.3;;;;;;;-3.63;47.55078;95205.66;;;;
2022/03/06 02:56:40;;;;;;;22.7;11.3;;;;;;;-3.63;47.55078;95205.66;;;;
2022/03/06 02:57:41;;;;;;;22.7;11.3;;;;;;;-3.63;47.55078;95205.66;;;;
2022/03/06 02:58:42;;;;;;;22.7;11.3;;;;;;;-3.63;47.55078;95205.66;;;;
2022/03/06 02:59:43;;;;;;;22.7;11.3;;;;;;;-3.63;47.55078;95205.66;;;;
2022/03/06 03:00:43;;;;;;;22.7;11.3;;;;;;;-3.63;47.55078;95205.66;;;;
2022/03/06 03:01:43;;;;;;;22.7;11.3;;;;;;;-3.63;47.55078;95205.66;;;;
2022/03/06 03:02:44;;;;;;;22.7;11.3;;;;;;;-3.63;47.55078;95205.66;;;;
2022/03/06 03:03:45;;;;;;;22.7;11.3;;;;;;;-3.63;47.55078;95205.66;;;;
2022/03/06 03:04:45;;;;;;;22.7;11.3;;;;;;;-3.63;47.55078;95205.66;;;;
2022/03/06 03:05:47;;;;;;;22.7;11.3;;;;;;;-3.63;47.55078;95205.66;;;;
2022/03/06 03:06:50;;;;;;;22.7;11.3;;;;;;;-3.63;47.55078;95205.66;;;;
2022/03/06 03:07:51;;;;;;;22.7;11.3;;;;;;;-3.63;47.55078;95205.66;;;;
2022/03/06 03:08:51;;;;;;;22.7;11.3;;;;;;;-3.63;47.55078;95205.66;;;;
2022/03/06 03:09:52;;;;;;;22.7;11.3;;;;;;;-3.63;47.55078;95205.66;;;;
2022/03/06 03:10:53;;;;;;;22.7;11.3;;;;;;;-3.63;47.55078;95205.66;;;;
2022/03/06 03:11:54;;;;;;;25.4;12.2;;;;;;;-3.71;48.5625;95213.53;;;;
2022/03/06 03:12:55;;;;;;;25.4;12.2;;;;;;;-3.71;48.5625;95213.53;;;;
2022/03/06 03:13:56;;;;;;;25.4;12.2;;;;;;;-3.71;48.5625;95213.53;;;;
2022/03/06 03:14:56;;;;;;;25.4;12.2;;;;;;;-3.71;48.5625;95213.53;;;;
2022/03/06 03:15:58;;;;;;;25.4;12.2;;;;;;;-3.71;48.5625;95213.53;;;;
2022/03/06 03:16:58;;;;;;;25.4;12.2;;;;;;;-3.71;48.5625;95213.53;;;;
2022/03/06 03:17:59;;;;;;;25.4;12.2;;;;;;;-3.71;48.5625;95213.53;;;;
2022/03/06 03:19:00;;;;;;;25.4;12.2;;;;;;;-3.71;48.5625;95213.53;;;;
2022/03/06 03:20:00;;;;;;;25.4;12.2;;;;;;;-3.71;48.5625;95213.53;;;;
2022/03/06 03:21:01;;;;;;;25.4;12.2;;;;;;;-3.71;48.5625;95213.53;;;;
2022/03/06 03:22:01;;;;;;;25.4;12.2;;;;;;;-3.71;48.5625;95213.53;;;;
2022/03/06 03:23:03;;;;;;;24.65;12.95;;;;;;;-3.74;48.19531;95226.93;;;;
2022/03/06 03:24:03;;;;;;;24.65;12.95;;;;;;;-3.74;48.19531;95226.93;;;;
2022/03/06 03:25:05;;;;;;;24.65;12.95;;;;;;;-3.74;48.19531;95226.93;;;;
2022/03/06 03:26:07;;;;;;;24.65;12.95;;;;;;;-3.74;48.19531;95226.93;;;;
2022/03/06 03:27:08;;;;;;;24.65;12.95;;;;;;;-3.74;48.19531;95226.93;;;;
2022/03/06 03:28:09;;;;;;;24.65;12.95;;;;;;;-3.74;48.19531;95226.93;;;;
2022/03/06 03:29:10;;;;;;;24.65;12.95;;;;;;;-3.74;48.19531;95226.93;;;;
2022/03/06 03:30:10;;;;;;;24.65;12.95;;;;;;;-3.74;48.19531;95226.93;;;;
2022/03/06 03:31:11;;;;;;;24.65;12.95;;;;;;;-3.74;48.19531;95226.93;;;;
2022/03/06 03:32:11;;;;;;;24.65;12.95;;;;;;;-3.74;48.19531;95226.93;;;;
2022/03/06 03:33:13;;;;;;;24.65;12.95;;;;;;;-3.74;48.19531;95226.93;;;;
2022/03/06 03:34:13;;;;;;;24.95;12.35;;;;;;;-3.66;48.65234;95216.05;;;;
2022/03/06 03:35:14;;;;;;;24.95;12.35;;;;;;;-3.66;48.65234;95216.05;;;;
2022/03/06 03:36:15;;;;;;;24.95;12.35;;;;;;;-3.66;48.65234;95216.05;;;;
2022/03/06 03:37:16;;;;;;;24.95;12.35;;;;;;;-3.66;48.65234;95216.05;;;;
2022/03/06 03:38:16;;;;;;;24.95;12.35;;;;;;;-3.66;48.65234;95216.05;;;;
2022/03/06 03:39:17;;;;;;;24.95;12.35;;;;;;;-3.66;48.65234;95216.05;;;;
2022/03/06 03:40:17;;;;;;;24.95;12.35;;;;;;;-3.66;48.65234;95216.05;;;;
2022/03/06 03:41:18;;;;;;;24.95;12.35;;;;;;;-3.66;48.65234;95216.05;;;;
2022/03/06 03:42:19;;;;;;;24.95;12.35;;;;;;;-3.66;48.65234;95216.05;;;;
2022/03/06 03:43:19;;;;;;;24.95;12.35;;;;;;;-3.66;48.65234;95216.05;;;;
2022/03/06 03:44:20;;;;;;;25.4;12.15;;;;;;;-3.7;48.60645;95228.77;;;;
2022/03/06 03:45:20;;;;;;;25.4;12.15;;;;;;;-3.7;48.60645;95228.77;;;;
2022/03/06 03:46:21;;;;;;;25.4;12.15;;;;;;;-3.7;48.60645;95228.77;;;;
2022/03/06 03:47:22;;;;;;;25.4;12.15;;;;;;;-3.7;48.60645;95228.77;;;;
2022/03/06 03:48:22;;;;;;;25.4;12.15;;;;;;;-3.7;48.60645;95228.77;;;;
2022/03/06 03:49:23;;;;;;;25.4;12.15;;;;;;;-3.7;48.60645;95228.77;;;;
2022/03/06 03:50:23;;;;;;;25.4;12.15;;;;;;;-3.7;48.60645;95228.77;;;;
2022/03/06 03:51:24;;;;;;;25.4;12.15;;;;;;;-3.7;48.60645;95228.77;;;;
2022/03/06 03:52:24;;;;;;;25.4;12.15;;;;;;;-3.7;48.60645;95228.77;;;;
2022/03/06 03:53:25;;;;;;;25.4;12.15;;;;;;;-3.7;48.60645;95228.77;;;;
2022/03/06 03:54:26;;;;;;;25.4;12.15;;;;;;;-3.7;48.60645;95228.77;;;;
2022/03/06 03:55:26;;;;;;;24.95;12.7;;;;;;;-3.69;48.50195;95247.6;;;;
2022/03/06 03:56:26;;;;;;;24.95;12.7;;;;;;;-3.69;48.50195;95247.6;;;;
2022/03/06 03:57:27;;;;;;;24.95;12.7;;;;;;;-3.69;48.50195;95247.6;;;;
2022/03/06 03:58:27;;;;;;;24.95;12.7;;;;;;;-3.69;48.50195;95247.6;;;;
2022/03/06 03:59:28;;;;;;;24.95;12.7;;;;;;;-3.69;48.50195;95247.6;;;;
2022/03/06 04:00:28;;;;;;;24.95;12.7;;;;;;;-3.69;48.50195;95247.6;;;;
2022/03/06 04:01:29;;;;;;;24.95;12.7;;;;;;;-3.69;48.50195;95247.6;;;;
2022/03/06 04:02:29;;;;;;;24.95;12.7;;;;;;;-3.69;48.50195;95247.6;;;;
2022/03/06 04:03:30;;;;;;;24.95;12.7;;;;;;;-3.69;48.50195;95247.6;;;;
2022/03/06 04:04:31;;;;;;;24.95;12.7;;;;;;;-3.69;48.50195;95247.6;;;;
2022/03/06 04:05:31;;;;;;;30.85;19.1;;;;;;;-3.57;48.41211;95247.28;;;;
2022/03/06 04:06:32;;;;;;;30.85;19.1;;;;;;;-3.57;48.41211;95247.28;;;;
2022/03/06 04:07:32;;;;;;;30.85;19.1;;;;;;;-3.57;48.41211;95247.28;;;;
2022/03/06 04:08:33;;;;;;;30.85;19.1;;;;;;;-3.57;48.41211;95247.28;;;;
2022/03/06 04:09:33;;;;;;;30.85;19.1;;;;;;;-3.57;48.41211;95247.28;;;;
2022/03/06 04:10:34;;;;;;;30.85;19.1;;;;;;;-3.57;48.41211;95247.28;;;;
2022/03/06 04:11:35;;;;;;;30.85;19.1;;;;;;;-3.57;48.41211;95247.28;;;;
2022/03/06 04:12:35;;;;;;;30.85;19.1;;;;;;;-3.57;48.41211;95247.28;;;;
2022/03/06 04:13:36;;;;;;;30.85;19.1;;;;;;;-3.57;48.41211;95247.28;;;;
2022/03/06 04:14:36;;;;;;;30.85;19.1;;;;;;;-3.57;48.41211;95247.28;;;;
2022/03/06 04:15:37;;;;;;;30.85;19.1;;;;;;;-3.57;48.41211;95247.28;;;;
2022/03/06 04:16:38;;;;;;;28.6;13.3;;;;;;;-3.49;49.18359;95248.17;;;;
2022/03/06 04:17:38;;;;;;;28.6;13.3;;;;;;;-3.49;49.18359;95248.17;;;;
2022/03/06 04:18:39;;;;;;;28.6;13.3;;;;;;;-3.49;49.18359;95248.17;;;;
2022/03/06 04:19:39;;;;;;;28.6;13.3;;;;;;;-3.49;49.18359;95248.17;;;;
2022/03/06 04:20:40;;;;;;;28.6;13.3;;;;;;;-3.49;49.18359;95248.17;;;;
2022/03/06 04:21:40;;;;;;;28.6;13.3;;;;;;;-3.49;49.18359;95248.17;;;;
2022/03/06 04:22:41;;;;;;;28.6;13.3;;;;;;;-3.49;49.18359;95248.17;;;;
2022/03/06 04:23:41;;;;;;;28.6;13.3;;;;;;;-3.49;49.18359;95248.17;;;;
2022/03/06 04:24:42;;;;;;;28.6;13.3;;;;;;;-3.49;49.18359;95248.17;;;;
2022/03/06 04:25:42;;;;;;;28.6;13.3;;;;;;;-3.49;49.18359;95248.17;;;;
2022/03/06 04:26:43;;;;;;;28.6;13.3;;;;;;;-3.49;49.18359;95248.17;;;;
2022/03/06 04:27:44;;;;;;;33;17.85;;;;;;;-3.37;48.93555;95255.38;;;;
2022/03/06 04:28:44;;;;;;;33;17.85;;;;;;;-3.37;48.93555;95255.38;;;;
2022/03/06 04:29:45;;;;;;;33;17.85;;;;;;;-3.37;48.93555;95255.38;;;;
2022/03/06 04:30:45;;;;;;;33;17.85;;;;;;;-3.37;48.93555;95255.38;;;;
2022/03/06 04:31:46;;;;;;;33;17.85;;;;;;;-3.37;48.93555;95255.38;;;;
2022/03/06 04:32:46;;;;;;;33;17.85;;;;;;;-3.37;48.93555;95255.38;;;;
2022/03/06 04:33:47;;;;;;;33;17.85;;;;;;;-3.37;48.93555;95255.38;;;;
2022/03/06 04:34:47;;;;;;;33;17.85;;;;;;;-3.37;48.93555;95255.38;;;;
2022/03/06 04:35:49;;;;;;;33;17.85;;;;;;;-3.37;48.93555;95255.38;;;;
2022/03/06 04:36:49;;;;;;;33;17.85;;;;;;;-3.37;48.93555;95255.38;;;;
2022/03/06 04:37:50;;;;;;;28.9;13.1;;;;;;;-3.28;49.625;95261.06;;;;
2022/03/06 04:38:50;;;;;;;28.9;13.1;;;;;;;-3.28;49.625;95261.06;;;;
2022/03/06 04:39:51;;;;;;;28.9;13.1;;;;;;;-3.28;49.625;95261.06;;;;
2022/03/06 04:40:51;;;;;;;28.9;13.1;;;;;;;-3.28;49.625;95261.06;;;;
2022/03/06 04:41:52;;;;;;;28.9;13.1;;;;;;;-3.28;49.625;95261.06;;;;
2022/03/06 04:42:52;;;;;;;28.9;13.1;;;;;;;-3.28;49.625;95261.06;;;;
2022/03/06 04:43:53;;;;;;;28.9;13.1;;;;;;;-3.28;49.625;95261.06;;;;
2022/03/06 04:44:54;;;;;;;28.9;13.1;;;;;;;-3.28;49.625;95261.06;;;;
2022/03/06 04:45:54;;;;;;;28.9;13.1;;;;;;;-3.28;49.625;95261.06;;;;
2022/03/06 04:46:55;;;;;;;28.9;13.1;;;;;;;-3.28;49.625;95261.06;;;;
2022/03/06 04:47:55;;;;;;;28.9;13.1;;;;;;;-3.28;49.625;95261.06;;;;
2022/03/06 04:48:56;;;;;;;28.7;13;;;;;;;-3.2;49.39453;95256.24;;;;
2022/03/06 04:49:56;;;;;;;28.7;13;;;;;;;-3.2;49.39453;95256.24;;;;
2022/03/06 04:50:58;;;;;;;28.7;13;;;;;;;-3.2;49.39453;95256.24;;;;
2022/03/06 04:51:59;;;;;;;28.7;13;;;;;;;-3.2;49.39453;95256.24;;;;
2022/03/06 04:53:00;;;;;;;28.7;13;;;;;;;-3.2;49.39453;95256.24;;;;
2022/03/06 04:54:00;;;;;;;28.7;13;;;;;;;-3.2;49.39453;95256.24;;;;
2022/03/06 04:55:01;;;;;;;28.7;13;;;;;;;-3.2;49.39453;95256.24;;;;
2022/03/06 04:56:01;;;;;;;28.7;13;;;;;;;-3.2;49.39453;95256.24;;;;
2022/03/06 04:57:03;;;;;;;28.7;13;;;;;;;-3.2;49.39453;95256.24;;;;
2022/03/06 04:58:03;;;;;;;28.7;13;;;;;;;-3.2;49.39453;95256.24;;;;
2022/03/06 04:59:04;;;;;;;28.7;13;;;;;;;-3.2;49.39453;95256.24;;;;
2022/03/06 05:00:05;;;;;;;28.7;13;;;;;;;-3.2;49.39453;95256.24;;;;
2022/03/06 05:01:07;;;;;;;28.7;13;;;;;;;-3.2;49.39453;95256.24;;;;
2022/03/06 05:02:07;;;;;;;28.7;13;;;;;;;-3.2;49.39453;95256.24;;;;
2022/03/06 05:03:08;;;;;;;28.7;13;;;;;;;-3.2;49.39453;95256.24;;;;
2022/03/06 05:04:08;;;;;;;28.7;13;;;;;;;-3.2;49.39453;95256.24;;;;
2022/03/06 05:05:09;;;;;;;28.7;13;;;;;;;-3.2;49.39453;95256.24;;;;
2022/03/06 05:06:10;;;;;;;28.7;13;;;;;;;-3.2;49.39453;95256.24;;;;
2022/03/06 05:07:10;;;;;;;28.7;13;;;;;;;-3.2;49.39453;95256.24;;;;
2022/03/06 05:08:11;;;;;;;28.7;13;;;;;;;-3.2;49.39453;95256.24;;;;
2022/03/06 05:09:12;;;;;;;28.7;13;;;;;;;-3.2;49.39453;95256.24;;;;
2022/03/06 05:10:12;;;;;;;28.7;13;;;;;;;-3.2;49.39453;95256.24;;;;
2022/03/06 05:11:13;;;;;;;28.7;13;;;;;;;-3.2;49.39453;95256.24;;;;
2022/03/06 05:12:14;;;;;;;28.7;13;;;;;;;-3.2;49.39453;95256.24;;;;
2022/03/06 05:13:14;;;;;;;28.7;13;;;;;;;-3.2;49.39453;95256.24;;;;
2022/03/06 05:14:15;;;;;;;28.7;13;;;;;;;-3.2;49.39453;95256.24;;;;
2022/03/06 05:15:16;;;;;;;28.7;13;;;;;;;-3.2;49.39453;95256.24;;;;
2022/03/06 05:16:17;;;;;;;28.7;13;;;;;;;-3.2;49.39453;95256.24;;;;
2022/03/06 05:17:18;;;;;;;28.7;13;;;;;;;-3.2;49.39453;95256.24;;;;
2022/03/06 05:18:19;;;;;;;28.7;13;;;;;;;-3.2;49.39453;95256.24;;;;
2022/03/06 05:19:19;;;;;;;28.7;13;;;;;;;-3.2;49.39453;95256.24;;;;
2022/03/06 05:20:20;;;;;;;26.8;13.25;;;;;;;-3.41;49.39063;95264.98;;;;
2022/03/06 05:21:21;;;;;;;26.8;13.25;;;;;;;-3.41;49.39063;95264.98;;;;
2022/03/06 05:22:21;;;;;;;26.8;13.25;;;;;;;-3.41;49.39063;95264.98;;;;
2022/03/06 05:23:22;;;;;;;26.8;13.25;;;;;;;-3.41;49.39063;95264.98;;;;
2022/03/06 05:24:22;;;;;;;26.8;13.25;;;;;;;-3.41;49.39063;95264.98;;;;
2022/03/06 05:25:23;;;;;;;26.8;13.25;;;;;;;-3.41;49.39063;95264.98;;;;
2022/03/06 05:26:23;;;;;;;26.8;13.25;;;;;;;-3.41;49.39063;95264.98;;;;
2022/03/06 05:27:24;;;;;;;26.8;13.25;;;;;;;-3.41;49.39063;95264.98;;;;
2022/03/06 05:28:25;;;;;;;26.8;13.25;;;;;;;-3.41;49.39063;95264.98;;;;
2022/03/06 05:29:26;;;;;;;26.8;13.25;;;;;;;-3.41;49.39063;95264.98;;;;
2022/03/06 05:30:27;;;;;;;26.8;13.25;;;;;;;-3.41;49.39063;95264.98;;;;
2022/03/06 05:31:27;;;;;;;25.5;12.75;;;;;;;-3.47;49.61328;95262.94;;;;
2022/03/06 05:32:28;;;;;;;25.5;12.75;;;;;;;-3.47;49.61328;95262.94;;;;
2022/03/06 05:33:28;;;;;;;25.5;12.75;;;;;;;-3.47;49.61328;95262.94;;;;
2022/03/06 05:34:29;;;;;;;25.5;12.75;;;;;;;-3.47;49.61328;95262.94;;;;
2022/03/06 05:35:30;;;;;;;25.5;12.75;;;;;;;-3.47;49.61328;95262.94;;;;
2022/03/06 05:36:30;;;;;;;25.5;12.75;;;;;;;-3.47;49.61328;95262.94;;;;
2022/03/06 05:37:31;;;;;;;25.5;12.75;;;;;;;-3.47;49.61328;95262.94;;;;
2022/03/06 05:38:32;;;;;;;25.5;12.75;;;;;;;-3.47;49.61328;95262.94;;;;
2022/03/06 05:39:32;;;;;;;25.5;12.75;;;;;;;-3.47;49.61328;95262.94;;;;
2022/03/06 05:40:33;;;;;;;25.5;12.75;;;;;;;-3.47;49.61328;95262.94;;;;
2022/03/06 05:41:33;;;;;;;26.6;12.9;;;;;;;-3.47;49.6748;95276.65;;;;